Time;durP1;ratioP1;P1;durP2;ratioP2;P2;SDS_P1;SDS_P2;PMS_P1;PMS_P2;Temp;Humidity;BMP_temperature;BMP_pressure;BME280_temperature;BME280_humidity;BME280_pressure;Samples;Min_cycle;Max_cycle;Signal;HPM_P1;HPM_P2
2023/01/07 00:01:05;;;;;;;47.80;22.52;;;;;;;8.85;100.00;101445.06;5005540;28;20406;-79
2023/01/07 00:03:31;;;;;;;47.70;23.27;;;;;;;8.87;100.00;101446.59;5003746;28;20049;-86
2023/01/07 00:06:09;;;;;;;52.50;23.30;;;;;;;8.83;100.00;101440.72;5010042;28;20081;-82
2023/01/07 00:08:38;;;;;;;41.95;21.77;;;;;;;8.91;100.00;101440.09;5008036;28;20458;-86
2023/01/07 00:11:07;;;;;;;43.40;21.38;;;;;;;9.02;100.00;101436.50;5001989;28;20026;-84
2023/01/07 00:13:34;;;;;;;41.58;20.38;;;;;;;9.15;100.00;101431.84;5003854;28;20034;-82
2023/01/07 00:16:02;;;;;;;44.08;20.10;;;;;;;9.24;100.00;101433.75;5004945;28;20042;-85
2023/01/07 00:18:27;;;;;;;45.95;20.08;;;;;;;9.34;100.00;101432.81;4968349;28;20122;-85
2023/01/07 00:20:58;;;;;;;48.47;20.73;;;;;;;9.44;100.00;101432.03;5002634;28;20062;-83
2023/01/07 00:23:26;;;;;;;42.78;20.30;;;;;;;9.19;100.00;101428.00;4986885;28;20042;-88
2023/01/07 00:26:02;;;;;;;45.63;20.17;;;;;;;9.09;100.00;101422.66;5002180;28;20117;-83
2023/01/07 00:28:27;;;;;;;41.88;19.35;;;;;;;9.18;100.00;101423.69;5002453;28;20034;-85
2023/01/07 00:31:01;;;;;;;42.92;20.45;;;;;;;9.16;100.00;101417.69;5000305;28;20030;-86
2023/01/07 00:33:27;;;;;;;42.53;19.33;;;;;;;9.24;100.00;101415.22;4999135;28;20466;-85
2023/01/07 00:36:01;;;;;;;41.22;18.80;;;;;;;9.23;100.00;101421.47;4981935;28;20030;-85
2023/01/07 00:38:27;;;;;;;43.60;20.65;;;;;;;9.23;100.00;101418.81;4964974;28;20121;-85
2023/01/07 00:40:53;;;;;;;38.42;19.52;;;;;;;9.16;100.00;101417.69;4981334;28;20058;-85
2023/01/07 00:43:18;;;;;;;43.85;18.02;;;;;;;9.20;100.00;101419.09;4980816;28;20129;-86
2023/01/07 00:45:44;;;;;;;43.42;20.35;;;;;;;9.10;100.00;101419.03;4998863;28;20085;-86
2023/01/07 00:48:09;;;;;;;36.95;19.08;;;;;;;9.34;100.00;101421.41;4999551;28;20071;-87
2023/01/07 00:50:37;;;;;;;52.30;25.42;;;;;;;9.23;100.00;101424.13;4998289;28;20126;-86
2023/01/07 00:53:03;;;;;;;45.67;21.73;;;;;;;9.33;100.00;101417.91;4981936;28;20049;-86
2023/01/07 00:55:29;;;;;;;44.00;22.60;;;;;;;8.95;100.00;101414.22;4998044;28;20088;-87
2023/01/07 00:57:55;;;;;;;43.03;22.10;;;;;;;8.84;100.00;101409.84;4998567;28;20034;-86
2023/01/07 01:00:22;;;;;;;39.25;19.00;;;;;;;8.99;100.00;101407.69;4998601;28;20026;-84
2023/01/07 01:02:49;;;;;;;43.22;21.08;;;;;;;8.99;100.00;101405.03;5000222;28;20057;-86
2023/01/07 01:05:16;;;;;;;44.83;20.80;;;;;;;8.95;100.00;101414.22;4981184;28;20038;-88
2023/01/07 01:07:41;;;;;;;45.65;20.27;;;;;;;9.01;100.00;101406.63;5001668;28;20477;-82
2023/01/07 01:12:59;;;;;;;38.03;18.48;;;;;;;8.98;100.00;101403.38;4920447;29;20067;-83
2023/01/07 01:15:25;;;;;;;40.83;19.42;;;;;;;9.09;100.00;101405.94;4921626;29;20040;-85
2023/01/07 01:17:51;;;;;;;42.60;19.20;;;;;;;9.09;100.00;101405.94;4920134;29;20051;-85
2023/01/07 01:20:18;;;;;;;45.65;18.55;;;;;;;9.05;100.00;101409.84;4918730;29;20036;-86
2023/01/07 01:22:44;;;;;;;39.63;18.88;;;;;;;9.04;100.00;101409.00;4919357;29;20051;-87
2023/01/07 01:25:11;;;;;;;37.95;17.75;;;;;;;9.05;100.00;101409.84;4920367;29;20032;-85
2023/01/07 01:27:37;;;;;;;35.88;17.90;;;;;;;9.06;100.00;101401.75;4920388;29;20127;-83
2023/01/07 01:30:04;;;;;;;37.10;18.48;;;;;;;8.90;100.00;101411.13;4918326;29;20052;-85
2023/01/07 01:32:31;;;;;;;37.95;18.13;;;;;;;8.92;100.00;101403.88;4918706;29;20391;-85
2023/01/07 01:34:57;;;;;;;35.78;17.83;;;;;;;8.85;100.00;101402.75;4918915;29;20064;-86
2023/01/07 01:37:22;;;;;;;42.97;19.23;;;;;;;8.81;100.00;101403.00;4920621;29;20036;-84
2023/01/07 01:39:48;;;;;;;40.30;20.80;;;;;;;8.82;100.00;101407.31;4919887;29;20530;-84
2023/01/07 01:42:21;;;;;;;48.15;21.42;;;;;;;8.83;100.00;101401.06;4919649;29;20520;-84
2023/01/07 01:44:55;;;;;;;47.08;20.35;;;;;;;8.67;100.00;101400.69;4902890;29;20036;-86
2023/01/07 01:47:39;;;;;;;42.60;20.23;;;;;;;8.72;100.00;101393.19;4918377;29;20376;-84
2023/01/07 01:50:22;;;;;;;42.72;18.10;;;;;;;8.80;100.00;101401.34;4918423;29;20067;-84
2023/01/07 01:53:09;;;;;;;43.20;19.15;;;;;;;8.67;100.00;101400.69;4918404;29;20155;-86
2023/01/07 01:55:55;;;;;;;45.83;20.77;;;;;;;8.61;100.00;101395.06;4918498;29;20055;-85
2023/01/07 01:58:47;;;;;;;41.08;18.95;;;;;;;8.74;100.00;101401.00;4918808;29;20071;-84
2023/01/07 02:01:13;;;;;;;42.30;19.20;;;;;;;8.75;100.00;101398.22;4918369;29;20035;-85
2023/01/07 02:03:38;;;;;;;48.63;20.98;;;;;;;8.63;100.00;101383.41;4902527;29;20036;-84
2023/01/07 02:06:06;;;;;;;43.78;20.77;;;;;;;8.62;100.00;101387.00;4918166;29;20387;-83
2023/01/07 02:08:32;;;;;;;42.38;19.90;;;;;;;8.82;100.00;101393.25;4919800;29;20063;-84
2023/01/07 02:11:14;;;;;;;38.97;19.02;;;;;;;8.76;100.00;101384.03;4918354;29;20037;-84
2023/01/07 02:13:55;;;;;;;39.78;19.27;;;;;;;8.66;100.00;101383.16;4919204;29;20040;-84
2023/01/07 02:16:39;;;;;;;42.60;19.85;;;;;;;8.71;100.00;101382.78;4918901;29;20434;-84
2023/01/07 02:19:42;;;;;;;39.65;19.80;;;;;;;8.62;100.00;101380.88;4917015;29;20083;-85
2023/01/07 02:22:32;;;;;;;43.95;20.15;;;;;;;8.58;100.00;101382.13;4921274;29;20482;-86
2023/01/07 02:25:19;;;;;;;40.50;19.63;;;;;;;8.60;100.00;101378.38;4921305;29;20040;-84
2023/01/07 02:28:00;;;;;;;47.92;20.48;;;;;;;8.62;100.00;101381.72;4921307;29;20056;-85
2023/01/07 02:30:41;;;;;;;43.83;18.77;;;;;;;8.59;100.00;101371.41;4927590;29;20037;-84
2023/01/07 02:33:20;;;;;;;38.13;17.70;;;;;;;8.72;100.00;101379.97;4932334;29;20039;-84
2023/01/07 02:36:01;;;;;;;39.13;18.88;;;;;;;8.54;100.00;101368.31;4941360;29;20048;-84
2023/01/07 02:38:43;;;;;;;46.90;19.63;;;;;;;8.58;100.00;101369.75;4926881;29;20052;-86
2023/01/07 02:41:37;;;;;;;40.13;19.02;;;;;;;8.75;100.00;101357.72;4918756;29;20043;-86
2023/01/07 02:44:05;;;;;;;41.92;19.63;;;;;;;8.96;100.00;101363.84;4917910;29;20107;-86
2023/01/07 02:46:43;;;;;;;43.70;19.15;;;;;;;8.80;100.00;101352.91;4918278;29;20118;-87
2023/01/07 02:49:13;;;;;;;40.30;19.40;;;;;;;8.74;100.00;101354.28;4918233;29;20040;-85
2023/01/07 02:51:40;;;;;;;41.75;19.15;;;;;;;8.87;100.00;101347.94;4917290;29;20123;-85
2023/01/07 02:54:11;;;;;;;39.58;19.33;;;;;;;8.71;100.00;101359.81;4916872;29;20036;-85
2023/01/07 02:57:15;;;;;;;41.05;19.48;;;;;;;8.73;100.00;101342.03;4920688;29;20108;-83
2023/01/07 02:59:47;;;;;;;41.13;19.75;;;;;;;8.70;100.00;101355.50;4887831;29;20067;-83
2023/01/07 03:02:36;;;;;;;41.28;19.23;;;;;;;8.83;100.00;101342.06;4927961;29;20044;-86
2023/01/07 03:05:36;;;;;;;41.05;19.60;;;;;;;8.85;100.00;101344.59;4928493;29;20050;-87
2023/01/07 03:08:16;;;;;;;42.63;19.63;;;;;;;8.71;100.00;101343.97;4927955;29;20036;-83
2023/01/07 03:11:07;;;;;;;37.83;19.33;;;;;;;8.73;100.00;101342.03;4927359;29;20062;-85
2023/01/07 03:13:50;;;;;;;38.85;18.63;;;;;;;8.91;100.00;101338.78;4903348;29;20052;-83
2023/01/07 03:16:20;;;;;;;39.42;19.15;;;;;;;8.82;100.00;101343.88;4927589;29;20025;-85
2023/01/07 03:18:51;;;;;;;36.70;17.13;;;;;;;8.90;100.00;101342.38;4920373;29;20043;-84
2023/01/07 03:21:20;;;;;;;35.67;17.50;;;;;;;8.87;100.00;101347.94;4919588;29;20500;-87
2023/01/07 03:23:50;;;;;;;38.00;17.98;;;;;;;8.85;100.00;101339.31;4919265;29;20046;-86
2023/01/07 03:26:21;;;;;;;37.28;18.88;;;;;;;8.92;100.00;101348.38;4920065;29;20387;-86
2023/01/07 03:28:49;;;;;;;37.40;18.40;;;;;;;8.92;100.00;101346.56;4917912;29;20106;-86
2023/01/07 03:31:16;;;;;;;38.55;18.75;;;;;;;8.89;100.00;101343.34;4918945;29;20036;-85
2023/01/07 03:33:49;;;;;;;44.17;19.70;;;;;;;8.77;100.00;101347.88;4919238;29;20036;-84
2023/01/07 03:36:18;;;;;;;41.30;19.90;;;;;;;8.74;100.00;101342.88;4916783;29;20095;-84
2023/01/07 03:38:46;;;;;;;45.55;20.52;;;;;;;8.76;100.00;101348.84;4916966;29;20024;-83
2023/01/07 03:42:38;;;;;;;39.63;18.95;;;;;;;8.70;100.00;101342.28;4916708;29;20040;-85
2023/01/07 03:43:57;;;;;;;35.38;17.60;;;;;;;9.01;100.00;101340.50;4901021;29;20042;-84
2023/01/07 03:46:23;;;;;;;39.47;17.80;;;;;;;9.04;100.00;101336.75;4916915;29;20126;-86
2023/01/07 03:48:51;;;;;;;34.80;17.52;;;;;;;8.99;100.00;101336.31;4918233;29;20040;-88
2023/01/07 03:51:17;;;;;;;41.80;19.27;;;;;;;9.06;100.00;101342.75;4916622;29;20059;-84
2023/01/07 03:53:42;;;;;;;46.03;19.83;;;;;;;9.01;100.00;101334.38;4916508;29;20479;-84
2023/01/07 03:56:08;;;;;;;38.92;18.40;;;;;;;9.25;100.00;101332.25;4915588;29;20040;-82
2023/01/07 03:58:34;;;;;;;42.72;19.48;;;;;;;8.99;100.00;101341.59;4916961;29;20044;-85
2023/01/07 04:00:59;;;;;;;44.72;19.27;;;;;;;8.93;100.00;101337.69;4915584;29;20083;-86
2023/01/07 04:03:25;;;;;;;44.15;20.58;;;;;;;8.92;100.00;101343.94;4915742;29;20068;-84
2023/01/07 04:05:51;;;;;;;41.97;19.10;;;;;;;8.96;100.00;101339.22;4917552;29;20044;-83
2023/01/07 04:08:21;;;;;;;42.30;20.63;;;;;;;8.94;100.00;101333.22;4919049;29;20040;-85
2023/01/07 04:10:46;;;;;;;47.90;21.65;;;;;;;8.88;100.00;101339.91;4919046;29;20048;-84
2023/01/07 04:13:12;;;;;;;43.53;20.63;;;;;;;8.87;100.00;101342.66;4918969;29;20032;-84
2023/01/07 04:15:41;;;;;;;46.03;20.67;;;;;;;8.79;100.00;101336.22;4920166;29;20100;-83
2023/01/07 04:18:07;;;;;;;47.15;20.45;;;;;;;8.88;100.00;101344.34;4918771;29;20048;-83
2023/01/07 04:20:33;;;;;;;56.13;22.60;;;;;;;8.72;100.00;101337.69;4918974;29;20048;-86
2023/01/07 04:22:58;;;;;;;40.17;20.70;;;;;;;8.94;100.00;101335.88;4918779;29;20696;-84
2023/01/07 04:25:24;;;;;;;42.22;20.55;;;;;;;9.14;100.00;101335.84;4903118;29;20036;-85
2023/01/07 04:27:50;;;;;;;40.92;19.58;;;;;;;9.29;100.00;101333.66;4919319;29;20028;-84
2023/01/07 04:30:15;;;;;;;41.53;19.60;;;;;;;9.28;100.00;101342.53;4919202;29;20123;-83
2023/01/07 04:32:41;;;;;;;38.78;19.77;;;;;;;9.14;100.00;101335.84;4903412;29;20036;-84
2023/01/07 04:35:09;;;;;;;45.85;20.23;;;;;;;9.01;100.00;101347.59;4919094;29;20068;-84
2023/01/07 04:37:34;;;;;;;43.50;20.77;;;;;;;9.04;100.00;101344.69;4920735;29;20032;-83
2023/01/07 04:40:01;;;;;;;48.70;21.52;;;;;;;8.92;100.00;101348.38;4922088;29;20107;-83
2023/01/07 04:42:30;;;;;;;46.60;21.67;;;;;;;8.82;100.00;101341.22;4922569;29;20522;-83
2023/01/07 04:44:56;;;;;;;51.25;22.05;;;;;;;8.70;100.00;101331.72;4924385;29;20036;-82
2023/01/07 04:47:22;;;;;;;48.15;21.02;;;;;;;8.68;100.00;101341.56;4924543;29;20086;-83
2023/01/07 04:49:47;;;;;;;45.40;21.20;;;;;;;8.69;100.00;101345.03;4925523;29;20387;-82
2023/01/07 04:52:13;;;;;;;45.45;20.35;;;;;;;8.68;100.00;101343.41;4919870;29;20047;-85
2023/01/07 04:54:39;;;;;;;52.85;21.98;;;;;;;8.69;100.00;101340.59;4918991;29;20047;-85
2023/01/07 04:57:05;;;;;;;46.05;21.38;;;;;;;8.69;100.00;101343.25;4918986;29;20500;-85
2023/01/07 04:59:31;;;;;;;51.90;22.33;;;;;;;8.69;100.00;101340.59;4920261;29;20126;-85
2023/01/07 05:01:58;;;;;;;49.17;22.25;;;;;;;8.62;100.00;101331.50;4918354;29;20032;-88
2023/01/07 05:04:24;;;;;;;50.28;22.13;;;;;;;8.69;100.00;101335.31;4918477;29;20062;-86
2023/01/07 05:06:50;;;;;;;47.10;22.45;;;;;;;8.75;100.00;101332.16;4919426;29;20028;-84
2023/01/07 05:09:16;;;;;;;49.67;22.48;;;;;;;8.73;100.00;101331.44;4917967;29;20224;-85
2023/01/07 05:11:42;;;;;;;46.90;21.90;;;;;;;8.77;100.00;101338.16;4918210;29;20108;-85
2023/01/07 05:14:10;;;;;;;48.38;22.70;;;;;;;8.80;100.00;101337.06;4918190;29;20043;-85
2023/01/07 05:16:37;;;;;;;51.42;22.42;;;;;;;8.84;100.00;101333.19;4917786;29;20567;-85
2023/01/07 05:19:06;;;;;;;51.97;24.08;;;;;;;8.75;100.00;101328.66;4917974;29;20047;-87
2023/01/07 05:21:36;;;;;;;56.00;24.40;;;;;;;8.67;100.00;101336.44;4918152;29;20040;-87
2023/01/07 05:24:02;;;;;;;49.35;23.38;;;;;;;8.57;100.00;101331.09;4918627;29;20050;-85
2023/01/07 05:26:27;;;;;;;49.72;21.88;;;;;;;8.56;100.00;101329.41;4924344;29;20039;-85
2023/01/07 05:28:54;;;;;;;51.28;24.17;;;;;;;8.59;100.00;101323.00;4919840;29;20506;-86
2023/01/07 05:31:20;;;;;;;56.03;25.60;;;;;;;8.62;100.00;101328.88;4920298;29;20025;-84
2023/01/07 05:33:46;;;;;;;56.58;27.60;;;;;;;8.61;100.00;101332.50;4924109;29;20067;-84
2023/01/07 05:36:12;;;;;;;56.20;27.05;;;;;;;8.61;100.00;101329.03;4939116;29;20060;-85
2023/01/07 05:38:37;;;;;;;54.40;25.95;;;;;;;8.52;100.00;101322.69;4922842;29;20492;-89
2023/01/07 05:41:03;;;;;;;48.65;23.63;;;;;;;8.47;100.00;101321.41;4917477;29;20048;-85
2023/01/07 05:43:29;;;;;;;50.75;22.98;;;;;;;8.53;100.00;101324.38;4917530;29;20040;-84
2023/01/07 05:45:56;;;;;;;45.15;21.25;;;;;;;8.73;100.00;101326.16;4918975;29;20036;-84
2023/01/07 05:48:22;;;;;;;45.30;21.58;;;;;;;8.74;100.00;101317.28;4918609;29;20127;-85
2023/01/07 05:50:50;;;;;;;39.38;19.95;;;;;;;8.92;100.00;101321.94;4918678;29;20123;-86
2023/01/07 05:53:16;;;;;;;40.00;19.30;;;;;;;9.05;100.00;101312.81;4918707;29;20047;-85
2023/01/07 05:55:41;;;;;;;38.72;19.52;;;;;;;9.01;100.00;101314.06;4918421;29;20111;-84
2023/01/07 05:58:07;;;;;;;38.97;18.55;;;;;;;9.13;100.00;101318.28;4916949;29;20036;-83
2023/01/07 06:00:33;;;;;;;37.38;18.73;;;;;;;8.94;100.00;101327.94;4918385;29;20368;-85
2023/01/07 06:02:59;;;;;;;36.70;18.83;;;;;;;9.10;100.00;101325.66;4918362;29;20068;-85
2023/01/07 06:05:24;;;;;;;38.88;18.80;;;;;;;9.14;100.00;101321.78;4918086;29;20071;-85
2023/01/07 06:07:50;;;;;;;37.58;18.45;;;;;;;8.97;100.00;101317.09;4917906;29;20032;-86
2023/01/07 06:10:16;;;;;;;37.70;19.13;;;;;;;8.88;100.00;101318.75;4916514;29;20576;-86
2023/01/07 06:12:41;;;;;;;35.92;17.08;;;;;;;8.82;100.00;101328.03;4918008;29;20087;-85
2023/01/07 06:15:07;;;;;;;40.70;19.15;;;;;;;8.85;100.00;101320.81;4917957;29;20033;-86
2023/01/07 06:17:33;;;;;;;38.72;18.15;;;;;;;8.90;100.00;101332.66;4917946;29;20032;-85
2023/01/07 06:19:59;;;;;;;44.85;20.17;;;;;;;8.81;100.00;101329.00;4917943;29;20036;-85
2023/01/07 06:22:24;;;;;;;37.28;18.67;;;;;;;8.92;100.00;101327.22;4920064;29;20055;-85
2023/01/07 06:24:50;;;;;;;39.60;18.85;;;;;;;8.87;100.00;101322.34;4920154;29;20047;-86
2023/01/07 06:27:15;;;;;;;41.05;18.00;;;;;;;8.96;100.00;101329.47;4920281;29;20028;-87
2023/01/07 06:29:41;;;;;;;37.63;18.48;;;;;;;8.89;100.00;101324.84;4919335;29;20495;-86
2023/01/07 06:32:08;;;;;;;40.38;19.10;;;;;;;8.80;100.00;101329.97;4919543;29;20035;-87
2023/01/07 06:34:34;;;;;;;38.60;19.13;;;;;;;8.70;100.00;101326.44;4919153;29;20091;-88
2023/01/07 06:37:00;;;;;;;43.50;19.42;;;;;;;8.68;100.00;101327.53;4920164;29;20032;-90
2023/01/07 06:39:28;;;;;;;41.42;20.08;;;;;;;8.59;100.00;101323.84;4927790;29;20062;-90
2023/01/07 06:41:54;;;;;;;43.42;20.27;;;;;;;8.52;100.00;101322.69;4923010;29;20040;-89
2023/01/07 06:44:23;;;;;;;39.85;19.92;;;;;;;8.57;100.00;101322.31;4922052;29;20440;-89
2023/01/07 06:46:48;;;;;;;40.97;20.35;;;;;;;8.74;100.00;101327.84;4906614;29;20036;-84
2023/01/07 06:49:14;;;;;;;39.10;20.13;;;;;;;8.75;100.00;101329.50;4936724;29;20047;-84
2023/01/07 06:51:39;;;;;;;37.72;19.60;;;;;;;9.00;100.00;101344.13;4931816;29;20040;-87
2023/01/07 06:54:05;;;;;;;47.30;20.67;;;;;;;8.89;100.00;101335.41;4918882;29;20082;-84
2023/01/07 06:56:30;;;;;;;43.30;20.92;;;;;;;8.75;100.00;101334.78;4920315;29;20040;-85
2023/01/07 06:58:56;;;;;;;40.55;20.67;;;;;;;8.71;100.00;101328.13;4921053;29;20451;-90
2023/01/07 07:01:21;;;;;;;45.95;22.08;;;;;;;8.76;100.00;101323.25;4922383;29;20055;-87
2023/01/07 07:03:49;;;;;;;41.92;19.88;;;;;;;8.85;100.00;101323.47;4922534;29;20048;-88
2023/01/07 07:06:18;;;;;;;42.97;21.55;;;;;;;8.83;100.00;101316.50;4923359;29;20039;-90
2023/01/07 07:08:44;;;;;;;44.25;20.50;;;;;;;8.80;100.00;101316.75;4921816;29;20048;-88
2023/01/07 07:11:12;;;;;;;41.30;20.10;;;;;;;8.82;100.00;101317.44;4906963;29;20096;-89
2023/01/07 07:13:37;;;;;;;40.45;20.05;;;;;;;8.75;100.00;101324.22;4923335;29;20032;-90
2023/01/07 07:16:03;;;;;;;41.20;20.38;;;;;;;8.89;100.00;101324.84;4925347;29;20029;-86
2023/01/07 07:18:29;;;;;;;41.30;20.65;;;;;;;8.74;100.00;101325.22;4923309;29;20048;-88
2023/01/07 07:20:58;;;;;;;39.28;19.83;;;;;;;8.80;100.00;101321.19;4920441;29;20044;-88
2023/01/07 07:23:24;;;;;;;42.30;21.92;;;;;;;8.62;100.00;101322.75;4920598;29;20044;-92
2023/01/07 07:25:49;;;;;;;44.17;20.88;;;;;;;8.31;100.00;101316.59;4921064;29;20046;-90
2023/01/07 07:28:15;;;;;;;43.83;21.50;;;;;;;8.31;100.00;101316.59;4904366;29;20032;-88
2023/01/07 07:30:41;;;;;;;44.17;20.63;;;;;;;8.49;100.00;101328.22;4921810;29;20040;-82
2023/01/07 07:33:07;;;;;;;44.92;19.88;;;;;;;8.42;100.00;101326.25;4922793;29;20039;-87
2023/01/07 07:35:33;;;;;;;41.53;19.75;;;;;;;8.36;100.00;101322.31;4923383;29;20064;-91
2023/01/07 07:37:59;;;;;;;44.42;21.70;;;;;;;8.34;100.00;101318.97;4919168;29;20032;-86
2023/01/07 07:40:24;;;;;;;40.53;20.75;;;;;;;8.42;100.00;101320.97;4920389;29;20024;-89
2023/01/07 07:42:50;;;;;;;46.40;21.67;;;;;;;8.50;100.00;101311.44;4923400;29;20160;-89
2023/01/07 07:45:18;;;;;;;44.45;21.20;;;;;;;8.55;100.00;101319.78;4906267;29;20051;-86
2023/01/07 07:47:46;;;;;;;47.47;22.08;;;;;;;8.65;100.00;101318.03;4924067;29;20509;-89
2023/01/07 07:50:12;;;;;;;43.83;20.48;;;;;;;8.81;100.00;101328.16;4923956;29;20044;-90
2023/01/07 07:52:38;;;;;;;43.75;21.20;;;;;;;8.71;100.00;101338.69;4921141;29;20996;-90
2023/01/07 07:55:03;;;;;;;48.10;22.20;;;;;;;8.58;100.00;101332.75;4923805;29;20046;-88
2023/01/07 07:57:29;;;;;;;39.88;19.02;;;;;;;8.72;100.00;101335.06;4923814;29;20051;-91
2023/01/07 07:59:54;;;;;;;45.88;21.67;;;;;;;8.70;100.00;101339.66;4925805;29;20028;-89
2023/01/07 08:02:20;;;;;;;43.75;21.00;;;;;;;8.73;100.00;101327.97;4929679;29;20048;-85
2023/01/07 08:04:49;;;;;;;48.90;23.70;;;;;;;8.75;100.00;101334.78;4928422;29;20058;-86
2023/01/07 08:07:15;;;;;;;49.88;25.83;;;;;;;8.91;100.00;101330.84;4933105;29;20064;-86
2023/01/07 08:09:40;;;;;;;52.50;25.40;;;;;;;8.77;100.00;101332.88;4931831;29;20131;-85
2023/01/07 08:12:07;;;;;;;47.42;23.35;;;;;;;8.66;100.00;101340.03;4926400;29;20042;-89
2023/01/07 08:14:33;;;;;;;48.90;24.75;;;;;;;8.65;100.00;101336.53;4921985;29;20032;-86
2023/01/07 08:16:58;;;;;;;41.30;20.58;;;;;;;8.63;100.00;101341.13;4923040;29;20037;-86
2023/01/07 08:19:24;;;;;;;41.22;19.27;;;;;;;8.64;100.00;101331.41;4921184;29;20036;-87
2023/01/07 08:21:50;;;;;;;40.45;19.17;;;;;;;8.56;100.00;101329.41;4920755;29;20099;-88
2023/01/07 08:24:16;;;;;;;46.00;21.10;;;;;;;8.62;100.00;101328.03;4924152;29;20068;-89
2023/01/07 08:26:41;;;;;;;40.70;20.48;;;;;;;8.64;100.00;101321.66;4924165;29;20116;-87
2023/01/07 08:29:07;;;;;;;40.80;21.30;;;;;;;8.62;100.00;101320.09;4921958;29;20036;-87
2023/01/07 08:31:32;;;;;;;39.38;20.45;;;;;;;8.61;100.00;101331.66;4934096;29;20495;-84
2023/01/07 08:33:57;;;;;;;41.83;21.33;;;;;;;8.70;100.00;101331.72;4938987;29;20024;-86
2023/01/07 08:36:23;;;;;;;40.72;21.15;;;;;;;8.72;100.00;101337.69;4943252;29;20032;-89
2023/01/07 08:38:50;;;;;;;38.50;21.60;;;;;;;8.81;100.00;101338.75;4935819;29;20479;-89
2023/01/07 08:41:16;;;;;;;41.60;19.42;;;;;;;8.98;100.00;101337.28;4924143;29;20348;-90
2023/01/07 08:43:43;;;;;;;43.00;21.15;;;;;;;8.88;100.00;101331.97;4924760;29;20040;-89
2023/01/07 08:46:09;;;;;;;40.28;20.92;;;;;;;8.97;100.00;101336.47;4923263;29;20076;-91
2023/01/07 08:48:37;;;;;;;39.55;20.02;;;;;;;9.01;100.00;101334.38;4924500;29;20095;-87
2023/01/07 08:51:04;;;;;;;38.08;20.23;;;;;;;9.02;100.00;101330.75;4932378;29;20610;-87
2023/01/07 08:53:30;;;;;;;44.70;20.20;;;;;;;9.01;100.00;101339.66;4921032;29;20040;-86
2023/01/07 08:55:55;;;;;;;38.97;20.13;;;;;;;9.06;100.00;101348.03;4919722;29;20036;-83
2023/01/07 08:58:21;;;;;;;39.75;19.63;;;;;;;9.07;100.00;101352.34;4922277;29;20036;-86
2023/01/07 09:00:46;;;;;;;45.05;19.90;;;;;;;9.14;100.00;101354.34;4921729;29;20460;-87
2023/01/07 09:03:11;;;;;;;38.03;19.50;;;;;;;9.12;100.00;101352.78;4919847;29;20032;-86
2023/01/07 09:05:37;;;;;;;43.35;20.52;;;;;;;9.02;100.00;101347.47;4919937;29;20111;-86
2023/01/07 09:08:03;;;;;;;39.00;19.25;;;;;;;9.01;100.00;101351.09;4908840;29;20036;-86
2023/01/07 09:10:32;;;;;;;45.25;21.60;;;;;;;9.12;100.00;101350.97;4921269;29;20036;-88
2023/01/07 09:12:58;;;;;;;48.97;22.25;;;;;;;8.91;100.00;101352.00;4919915;29;20522;-86
2023/01/07 09:15:25;;;;;;;47.28;21.48;;;;;;;8.83;100.00;101356.13;4935864;29;20028;-88
2023/01/07 09:17:50;;;;;;;49.30;22.60;;;;;;;8.79;100.00;101352.06;4923940;29;20039;-84
2023/01/07 09:20:16;;;;;;;48.80;22.92;;;;;;;8.73;100.00;101355.25;4920151;29;20036;-87
2023/01/07 09:22:42;;;;;;;54.65;24.50;;;;;;;8.70;100.00;101354.66;4919867;29;20088;-87
2023/01/07 09:25:09;;;;;;;51.65;22.92;;;;;;;8.74;100.00;101353.44;4919847;29;20090;-89
2023/01/07 09:27:36;;;;;;;47.90;23.45;;;;;;;8.69;100.00;101367.03;4921434;29;20056;-87
2023/01/07 09:30:01;;;;;;;50.78;24.85;;;;;;;8.78;100.00;101365.44;4905378;29;20048;-85
2023/01/07 09:32:27;;;;;;;54.60;25.02;;;;;;;8.90;100.00;101363.53;4921848;29;20103;-87
2023/01/07 09:34:54;;;;;;;49.78;25.23;;;;;;;8.93;100.00;101373.84;4923542;29;20036;-88
2023/01/07 09:37:20;;;;;;;59.85;25.70;;;;;;;8.88;100.00;101370.78;4922385;29;20103;-87
2023/01/07 09:39:46;;;;;;;53.58;25.48;;;;;;;8.80;100.00;101364.31;4923520;29;20064;-89
2023/01/07 09:42:20;;;;;;;52.75;23.92;;;;;;;8.80;100.00;101366.97;4907778;29;20044;-89
2023/01/07 09:45:09;;;;;;;55.95;25.73;;;;;;;9.00;100.00;101359.13;4922183;29;20044;-86
2023/01/07 09:47:37;;;;;;;55.70;24.23;;;;;;;8.92;100.00;101366.88;4923073;29;20043;-86
2023/01/07 09:50:42;;;;;;;54.72;24.45;;;;;;;8.95;100.00;101371.94;4924499;29;20558;-89
2023/01/07 09:53:33;;;;;;;63.05;25.85;;;;;;;8.91;100.00;101366.06;4925389;29;20376;-88
2023/01/07 09:56:01;;;;;;;57.67;25.60;;;;;;;8.87;100.00;101374.38;4924606;29;20056;-90
2023/01/07 09:58:27;;;;;;;61.53;26.75;;;;;;;8.80;100.00;101368.78;4925738;29;20172;-88
2023/01/07 10:01:16;;;;;;;68.15;29.02;;;;;;;8.82;100.00;101377.41;4925124;29;20119;-87
2023/01/07 10:04:04;;;;;;;62.85;26.00;;;;;;;9.05;100.00;101378.09;4928969;29;20063;-85
2023/01/07 10:06:36;;;;;;;58.42;27.63;;;;;;;8.94;100.00;101371.09;4908869;29;20487;-86
2023/01/07 10:09:33;;;;;;;69.35;29.48;;;;;;;8.95;100.00;101366.66;4922380;29;20039;-88
2023/01/07 10:12:36;;;;;;;59.13;27.42;;;;;;;9.03;100.00;101361.53;4918354;29;20052;-85
2023/01/07 10:15:07;;;;;;;58.10;26.40;;;;;;;9.18;100.00;101347.81;4922690;29;20047;-85
2023/01/07 10:17:38;;;;;;;61.55;27.63;;;;;;;9.14;100.00;101349.06;4921291;29;20103;-85
2023/01/07 10:20:19;;;;;;;63.22;27.80;;;;;;;9.20;100.00;101339.75;4920998;29;20075;-87
2023/01/07 10:22:52;;;;;;;64.65;30.13;;;;;;;9.19;100.00;101338.06;4921437;29;20050;-86
2023/01/07 10:25:31;;;;;;;64.85;28.98;;;;;;;9.30;100.00;101340.63;4921031;29;20072;-85
2023/01/07 10:28:06;;;;;;;59.70;28.05;;;;;;;9.52;100.00;101345.69;4903723;29;20483;-88
2023/01/07 10:30:41;;;;;;;72.32;28.63;;;;;;;9.39;100.00;101326.59;4905085;29;20047;-88
2023/01/07 10:33:16;;;;;;;63.40;29.05;;;;;;;9.30;100.00;101324.75;4923605;29;20040;-91
2023/01/07 10:35:41;;;;;;;58.88;26.90;;;;;;;9.27;100.00;101319.75;4921249;29;20044;-86
2023/01/07 10:38:17;;;;;;;59.38;28.13;;;;;;;9.26;100.00;101318.06;4922403;29;20024;-88
2023/01/07 10:40:45;;;;;;;60.40;27.88;;;;;;;9.27;100.00;101309.16;4907594;29;20127;-88
2023/01/07 10:43:23;;;;;;;54.60;26.38;;;;;;;9.42;100.00;101306.94;4920488;29;20517;-86
2023/01/07 10:46:14;;;;;;;64.05;27.77;;;;;;;9.34;100.00;101302.38;4918915;29;20040;-86
2023/01/07 10:49:07;;;;;;;60.35;27.95;;;;;;;9.39;100.00;101305.41;4903465;29;20040;-86
2023/01/07 10:52:00;;;;;;;59.08;25.98;;;;;;;9.54;100.00;101305.88;4918202;29;20044;-88
2023/01/07 10:54:43;;;;;;;58.22;27.45;;;;;;;9.41;100.00;101306.16;4919301;29;20047;-87
2023/01/07 10:57:15;;;;;;;59.53;27.40;;;;;;;9.44;100.00;101302.38;4919677;29;20032;-87
2023/01/07 10:59:49;;;;;;;66.95;28.77;;;;;;;9.42;100.00;101301.66;4919486;29;20047;-87
2023/01/07 11:02:25;;;;;;;59.63;28.15;;;;;;;9.30;100.00;101299.16;4918861;29;20087;-85
2023/01/07 11:04:55;;;;;;;58.10;27.33;;;;;;;9.32;100.00;101301.63;4918856;29;20400;-87
2023/01/07 11:07:30;;;;;;;62.17;28.50;;;;;;;9.43;100.00;101288.31;4917628;29;20032;-87
2023/01/07 11:10:00;;;;;;;60.13;28.17;;;;;;;9.51;100.00;101295.56;4918231;29;20044;-84
2023/01/07 11:12:39;;;;;;;60.67;27.95;;;;;;;9.51;100.00;101285.00;4917578;29;20047;-87
2023/01/07 11:15:19;;;;;;;55.53;27.00;;;;;;;9.58;100.00;101284.28;4900265;29;20032;-88
2023/01/07 11:18:15;;;;;;;61.10;27.65;;;;;;;9.60;100.00;101274.41;4916144;29;20037;-85
2023/01/07 11:20:41;;;;;;;59.83;26.30;;;;;;;9.57;100.00;101274.69;4916310;29;20397;-86
2023/01/07 11:23:40;;;;;;;56.58;25.63;;;;;;;9.64;100.00;101281.13;4900253;29;20047;-85
2023/01/07 11:26:28;;;;;;;55.28;26.55;;;;;;;9.64;100.00;101265.25;4918414;29;20095;-87